SCCI/PUQ METAR and TAF weather

Enter ICAO airport designator
Station Type Date Time Source
SCCI METAR 2020/01/27 17:00 UTC NOAA

SCCI 271700Z 32017KT CAVOK 16/05 Q0993 NOSIG


Station Type Date Time Source
SCCI Decoded METAR 2020/01/27 17:00 UTC NOAA

Punta Arenas, Chile (SCCI) 53-00S 070-51W 33M
Jan 27, 2020 - 12:00 PM EST / 2020.01.27 1700 UTC
Wind: from the NW (320 degrees) at 20 MPH (17 KT):0
Visibility: greater than 7 mile(s):0
Temperature: 60 F (16 C)
Dew Point: 41 F (5 C)
Relative Humidity: 47%
Pressure (altimeter): 29.32 in. Hg (0993 hPa)
ob: SCCI 271700Z 32017KT CAVOK 16/05 Q0993 NOSIG
cycle: 17

Station Type Date Time Source
SCCI TAF 2020/01/27 18:03 UTC NOAA

TAF SCCI 271610Z 2718/2818 33016G26KT 9999 SCT040 TN06/2809Z TX16/2718Z
BECMG 2800/2802 29017G27KT 9000 -SHRA BKN035
BECMG 2806/2808 26020G30KT
BECMG 2810/2812 SCT025 BKN030
TEMPO 2812/2814 25025G35KT

Example: see airport list